sensor_id;sensor_type;location;lat;lon;timestamp;temperature;humidity
2973;DHT22;1496;51.404;7.232;2022-11-15T00:01:00;10.00;99.90
2973;DHT22;1496;51.404;7.232;2022-11-15T00:03:45;10.00;99.90
2973;DHT22;1496;51.404;7.232;2022-11-15T00:06:30;10.10;99.90
2973;DHT22;1496;51.404;7.232;2022-11-15T00:09:14;10.10;99.90
2973;DHT22;1496;51.404;7.232;2022-11-15T00:11:58;10.20;99.90
2973;DHT22;1496;51.404;7.232;2022-11-15T00:14:42;10.20;99.90
2973;DHT22;1496;51.404;7.232;2022-11-15T00:17:26;10.30;99.90
2973;DHT22;1496;51.404;7.232;2022-11-15T00:20:10;10.30;99.90
2973;DHT22;1496;51.404;7.232;2022-11-15T00:22:55;10.30;99.90
2973;DHT22;1496;51.404;7.232;2022-11-15T00:25:40;10.40;99.90
2973;DHT22;1496;51.404;7.232;2022-11-15T00:28:25;10.50;99.90
2973;DHT22;1496;51.404;7.232;2022-11-15T00:31:13;10.50;99.90
2973;DHT22;1496;51.404;7.232;2022-11-15T00:33:57;10.60;99.90
2973;DHT22;1496;51.404;7.232;2022-11-15T00:36:41;10.50;99.90
2973;DHT22;1496;51.404;7.232;2022-11-15T00:39:25;10.50;99.90
2973;DHT22;1496;51.404;7.232;2022-11-15T00:42:10;10.60;99.90
2973;DHT22;1496;51.404;7.232;2022-11-15T00:44:54;10.70;99.90
2973;DHT22;1496;51.404;7.232;2022-11-15T00:47:38;10.80;99.90
2973;DHT22;1496;51.404;7.232;2022-11-15T00:50:22;10.90;99.90
2973;DHT22;1496;51.404;7.232;2022-11-15T00:53:06;10.80;99.90
2973;DHT22;1496;51.404;7.232;2022-11-15T00:55:51;10.80;99.90
2973;DHT22;1496;51.404;7.232;2022-11-15T00:58:35;10.80;99.90
2973;DHT22;1496;51.404;7.232;2022-11-15T01:01:19;10.90;99.90
2973;DHT22;1496;51.404;7.232;2022-11-15T01:04:03;10.90;99.90
2973;DHT22;1496;51.404;7.232;2022-11-15T01:06:47;10.90;99.90
2973;DHT22;1496;51.404;7.232;2022-11-15T01:09:31;10.90;99.90
2973;DHT22;1496;51.404;7.232;2022-11-15T01:12:16;11.00;99.90
2973;DHT22;1496;51.404;7.232;2022-11-15T01:15:00;10.90;99.90
2973;DHT22;1496;51.404;7.232;2022-11-15T01:17:44;10.90;99.90
2973;DHT22;1496;51.404;7.232;2022-11-15T01:20:28;11.00;99.90
2973;DHT22;1496;51.404;7.232;2022-11-15T01:23:12;11.00;99.90
2973;DHT22;1496;51.404;7.232;2022-11-15T01:26:01;11.10;99.90
2973;DHT22;1496;51.404;7.232;2022-11-15T01:28:45;11.10;99.90
2973;DHT22;1496;51.404;7.232;2022-11-15T01:31:29;11.10;99.90
2973;DHT22;1496;51.404;7.232;2022-11-15T01:34:14;11.10;99.90
2973;DHT22;1496;51.404;7.232;2022-11-15T01:36:59;11.10;99.90
2973;DHT22;1496;51.404;7.232;2022-11-15T01:39:43;11.20;99.90
2973;DHT22;1496;51.404;7.232;2022-11-15T01:42:28;11.20;99.90
2973;DHT22;1496;51.404;7.232;2022-11-15T01:45:15;11.20;99.90
2973;DHT22;1496;51.404;7.232;2022-11-15T01:48:00;11.20;99.90
2973;DHT22;1496;51.404;7.232;2022-11-15T01:50:44;11.20;99.90
2973;DHT22;1496;51.404;7.232;2022-11-15T01:53:30;11.20;99.90
2973;DHT22;1496;51.404;7.232;2022-11-15T01:56:21;11.30;99.90
2973;DHT22;1496;51.404;7.232;2022-11-15T01:59:08;11.30;99.90
2973;DHT22;1496;51.404;7.232;2022-11-15T02:01:54;11.20;99.90
2973;DHT22;1496;51.404;7.232;2022-11-15T02:04:42;11.20;99.90
2973;DHT22;1496;51.404;7.232;2022-11-15T02:07:28;11.30;99.90
2973;DHT22;1496;51.404;7.232;2022-11-15T02:10:18;11.40;99.90
2973;DHT22;1496;51.404;7.232;2022-11-15T02:13:02;11.30;99.90
2973;DHT22;1496;51.404;7.232;2022-11-15T02:19:40;11.40;99.90
2973;DHT22;1496;51.404;7.232;2022-11-15T02:22:55;11.30;99.90
2973;DHT22;1496;51.404;7.232;2022-11-15T02:29:10;11.20;99.90
2973;DHT22;1496;51.404;7.232;2022-11-15T02:32:04;11.20;99.90
2973;DHT22;1496;51.404;7.232;2022-11-15T02:34:56;11.30;99.90
2973;DHT22;1496;51.404;7.232;2022-11-15T02:37:51;11.20;99.90
2973;DHT22;1496;51.404;7.232;2022-11-15T02:40:57;11.30;99.90
2973;DHT22;1496;51.404;7.232;2022-11-15T02:43:45;11.30;99.90
2973;DHT22;1496;51.404;7.232;2022-11-15T02:47:04;11.30;99.90
2973;DHT22;1496;51.404;7.232;2022-11-15T02:50:03;11.30;99.90
2973;DHT22;1496;51.404;7.232;2022-11-15T02:52:50;11.30;99.90
2973;DHT22;1496;51.404;7.232;2022-11-15T02:55:36;11.30;99.90
2973;DHT22;1496;51.404;7.232;2022-11-15T03:04:57;11.40;99.90
2973;DHT22;1496;51.404;7.232;2022-11-15T03:07:57;11.40;99.90
2973;DHT22;1496;51.404;7.232;2022-11-15T03:11:17;11.40;99.90
2973;DHT22;1496;51.404;7.232;2022-11-15T03:14:17;11.40;99.90
2973;DHT22;1496;51.404;7.232;2022-11-15T03:17:14;11.40;99.90
2973;DHT22;1496;51.404;7.232;2022-11-15T03:20:03;11.40;99.90
2973;DHT22;1496;51.404;7.232;2022-11-15T03:22:49;11.40;99.90
2973;DHT22;1496;51.404;7.232;2022-11-15T03:25:39;11.40;99.90
2973;DHT22;1496;51.404;7.232;2022-11-15T03:28:32;11.40;99.90
2973;DHT22;1496;51.404;7.232;2022-11-15T03:31:19;11.40;99.90
2973;DHT22;1496;51.404;7.232;2022-11-15T03:34:40;11.50;99.90
2973;DHT22;1496;51.404;7.232;2022-11-15T03:37:34;11.50;99.90
2973;DHT22;1496;51.404;7.232;2022-11-15T03:40:24;11.50;99.90
2973;DHT22;1496;51.404;7.232;2022-11-15T03:43:30;11.60;99.90
2973;DHT22;1496;51.404;7.232;2022-11-15T03:46:25;11.60;99.90
2973;DHT22;1496;51.404;7.232;2022-11-15T03:49:20;11.70;99.90
2973;DHT22;1496;51.404;7.232;2022-11-15T03:52:06;11.60;99.90
2973;DHT22;1496;51.404;7.232;2022-11-15T03:54:53;11.60;99.90
2973;DHT22;1496;51.404;7.232;2022-11-15T03:57:37;11.60;99.90
2973;DHT22;1496;51.404;7.232;2022-11-15T04:00:22;11.50;99.90
2973;DHT22;1496;51.404;7.232;2022-11-15T04:03:06;11.50;99.90
2973;DHT22;1496;51.404;7.232;2022-11-15T04:05:52;11.60;99.90
2973;DHT22;1496;51.404;7.232;2022-11-15T04:08:36;11.50;99.90
2973;DHT22;1496;51.404;7.232;2022-11-15T04:11:21;11.50;99.90
2973;DHT22;1496;51.404;7.232;2022-11-15T04:14:05;11.60;99.90
2973;DHT22;1496;51.404;7.232;2022-11-15T04:16:50;11.70;99.90
2973;DHT22;1496;51.404;7.232;2022-11-15T04:19:34;11.60;99.90
2973;DHT22;1496;51.404;7.232;2022-11-15T04:22:37;11.60;99.90
2973;DHT22;1496;51.404;7.232;2022-11-15T04:25:41;11.70;99.90
2973;DHT22;1496;51.404;7.232;2022-11-15T04:28:25;11.70;99.90
2973;DHT22;1496;51.404;7.232;2022-11-15T04:31:10;11.70;99.90
2973;DHT22;1496;51.404;7.232;2022-11-15T04:33:54;11.60;99.90
2973;DHT22;1496;51.404;7.232;2022-11-15T04:36:38;11.70;99.90
2973;DHT22;1496;51.404;7.232;2022-11-15T04:39:42;11.60;99.90
2973;DHT22;1496;51.404;7.232;2022-11-15T04:42:27;11.70;99.90
2973;DHT22;1496;51.404;7.232;2022-11-15T04:45:11;11.80;99.90
2973;DHT22;1496;51.404;7.232;2022-11-15T04:47:55;11.80;99.90
2973;DHT22;1496;51.404;7.232;2022-11-15T04:50:39;11.80;99.90
2973;DHT22;1496;51.404;7.232;2022-11-15T04:53:23;11.90;99.90
2973;DHT22;1496;51.404;7.232;2022-11-15T04:56:08;11.80;99.90
2973;DHT22;1496;51.404;7.232;2022-11-15T04:58:52;11.80;99.90
2973;DHT22;1496;51.404;7.232;2022-11-15T05:01:36;11.80;99.90
2973;DHT22;1496;51.404;7.232;2022-11-15T05:04:20;11.90;99.90
2973;DHT22;1496;51.404;7.232;2022-11-15T05:07:05;11.90;99.90
2973;DHT22;1496;51.404;7.232;2022-11-15T05:09:49;11.90;99.90
2973;DHT22;1496;51.404;7.232;2022-11-15T05:12:34;11.90;99.90
2973;DHT22;1496;51.404;7.232;2022-11-15T05:15:18;11.80;99.90
2973;DHT22;1496;51.404;7.232;2022-11-15T05:18:02;11.80;99.90
2973;DHT22;1496;51.404;7.232;2022-11-15T05:20:46;11.80;99.90
2973;DHT22;1496;51.404;7.232;2022-11-15T05:23:30;11.80;99.90
2973;DHT22;1496;51.404;7.232;2022-11-15T05:26:16;11.80;99.90
2973;DHT22;1496;51.404;7.232;2022-11-15T05:29:01;11.80;99.90
2973;DHT22;1496;51.404;7.232;2022-11-15T05:31:45;11.80;99.90
2973;DHT22;1496;51.404;7.232;2022-11-15T05:34:30;11.80;99.90
2973;DHT22;1496;51.404;7.232;2022-11-15T05:37:15;11.80;99.90
2973;DHT22;1496;51.404;7.232;2022-11-15T05:39:59;11.80;99.90
2973;DHT22;1496;51.404;7.232;2022-11-15T05:42:44;11.90;99.90
2973;DHT22;1496;51.404;7.232;2022-11-15T05:45:30;11.90;99.90
2973;DHT22;1496;51.404;7.232;2022-11-15T05:48:15;11.80;99.90
2973;DHT22;1496;51.404;7.232;2022-11-15T05:51:00;11.80;99.90
2973;DHT22;1496;51.404;7.232;2022-11-15T05:53:46;11.80;99.90
2973;DHT22;1496;51.404;7.232;2022-11-15T05:56:33;11.80;99.90
2973;DHT22;1496;51.404;7.232;2022-11-15T05:59:17;11.80;99.90
2973;DHT22;1496;51.404;7.232;2022-11-15T06:02:02;11.70;99.90
2973;DHT22;1496;51.404;7.232;2022-11-15T06:04:46;11.70;99.90
2973;DHT22;1496;51.404;7.232;2022-11-15T06:07:30;11.70;99.90
2973;DHT22;1496;51.404;7.232;2022-11-15T06:10:15;11.70;99.90
2973;DHT22;1496;51.404;7.232;2022-11-15T06:13:04;11.70;99.90
2973;DHT22;1496;51.404;7.232;2022-11-15T06:15:48;11.70;99.90
2973;DHT22;1496;51.404;7.232;2022-11-15T06:18:36;11.70;99.90
2973;DHT22;1496;51.404;7.232;2022-11-15T06:21:20;11.70;99.90
2973;DHT22;1496;51.404;7.232;2022-11-15T06:24:05;11.70;99.90
2973;DHT22;1496;51.404;7.232;2022-11-15T06:26:50;11.70;99.90
2973;DHT22;1496;51.404;7.232;2022-11-15T06:29:34;11.70;99.90
2973;DHT22;1496;51.404;7.232;2022-11-15T06:32:25;11.80;99.90
2973;DHT22;1496;51.404;7.232;2022-11-15T06:35:10;11.80;99.90
2973;DHT22;1496;51.404;7.232;2022-11-15T06:37:54;11.80;99.90
2973;DHT22;1496;51.404;7.232;2022-11-15T06:40:39;11.80;99.90
2973;DHT22;1496;51.404;7.232;2022-11-15T06:43:24;11.80;99.90
2973;DHT22;1496;51.404;7.232;2022-11-15T06:46:09;11.80;99.90
2973;DHT22;1496;51.404;7.232;2022-11-15T06:48:54;11.80;99.90
2973;DHT22;1496;51.404;7.232;2022-11-15T06:51:38;11.90;99.90
2973;DHT22;1496;51.404;7.232;2022-11-15T06:54:22;11.90;99.90
2973;DHT22;1496;51.404;7.232;2022-11-15T06:57:07;11.90;99.90
2973;DHT22;1496;51.404;7.232;2022-11-15T06:59:51;11.90;99.90
2973;DHT22;1496;51.404;7.232;2022-11-15T07:02:35;11.90;99.90
2973;DHT22;1496;51.404;7.232;2022-11-15T07:05:19;11.90;99.90
2973;DHT22;1496;51.404;7.232;2022-11-15T07:08:03;11.90;99.90
2973;DHT22;1496;51.404;7.232;2022-11-15T07:10:48;11.90;99.90
2973;DHT22;1496;51.404;7.232;2022-11-15T07:13:34;11.90;99.90
2973;DHT22;1496;51.404;7.232;2022-11-15T07:16:18;11.90;99.90
2973;DHT22;1496;51.404;7.232;2022-11-15T07:19:03;11.90;99.90
2973;DHT22;1496;51.404;7.232;2022-11-15T07:21:48;11.90;99.90
2973;DHT22;1496;51.404;7.232;2022-11-15T07:24:33;11.90;99.90
2973;DHT22;1496;51.404;7.232;2022-11-15T07:27:27;11.80;99.90
2973;DHT22;1496;51.404;7.232;2022-11-15T07:30:12;11.80;99.90
2973;DHT22;1496;51.404;7.232;2022-11-15T07:32:59;11.60;99.90
2973;DHT22;1496;51.404;7.232;2022-11-15T07:35:44;11.60;99.90
2973;DHT22;1496;51.404;7.232;2022-11-15T07:38:30;11.60;99.90
2973;DHT22;1496;51.404;7.232;2022-11-15T07:41:14;11.50;99.90
2973;DHT22;1496;51.404;7.232;2022-11-15T07:43:59;11.50;99.90
2973;DHT22;1496;51.404;7.232;2022-11-15T07:46:43;11.50;99.90
2973;DHT22;1496;51.404;7.232;2022-11-15T07:49:27;11.50;99.90
2973;DHT22;1496;51.404;7.232;2022-11-15T07:52:12;11.50;99.90
2973;DHT22;1496;51.404;7.232;2022-11-15T07:54:57;11.50;99.90
2973;DHT22;1496;51.404;7.232;2022-11-15T07:57:41;11.40;99.90
2973;DHT22;1496;51.404;7.232;2022-11-15T08:00:25;11.40;99.90
2973;DHT22;1496;51.404;7.232;2022-11-15T08:03:14;11.50;99.90
2973;DHT22;1496;51.404;7.232;2022-11-15T08:05:59;11.40;99.90
2973;DHT22;1496;51.404;7.232;2022-11-15T08:08:47;11.40;99.90
2973;DHT22;1496;51.404;7.232;2022-11-15T08:11:32;11.50;99.90
2973;DHT22;1496;51.404;7.232;2022-11-15T08:14:16;11.40;99.90
2973;DHT22;1496;51.404;7.232;2022-11-15T08:17:01;11.50;99.90
2973;DHT22;1496;51.404;7.232;2022-11-15T08:19:45;11.60;99.90
2973;DHT22;1496;51.404;7.232;2022-11-15T08:22:29;11.60;99.90
2973;DHT22;1496;51.404;7.232;2022-11-15T08:25:13;11.60;99.90
2973;DHT22;1496;51.404;7.232;2022-11-15T08:28:00;11.60;99.90
2973;DHT22;1496;51.404;7.232;2022-11-15T08:30:44;11.60;99.90
2973;DHT22;1496;51.404;7.232;2022-11-15T08:33:30;11.60;99.90
2973;DHT22;1496;51.404;7.232;2022-11-15T08:36:16;11.70;99.90
2973;DHT22;1496;51.404;7.232;2022-11-15T08:39:01;11.70;99.90
2973;DHT22;1496;51.404;7.232;2022-11-15T08:41:45;11.70;99.90
2973;DHT22;1496;51.404;7.232;2022-11-15T08:44:29;11.60;99.90
2973;DHT22;1496;51.404;7.232;2022-11-15T08:47:14;11.60;99.90
2973;DHT22;1496;51.404;7.232;2022-11-15T08:49:59;11.70;99.90
2973;DHT22;1496;51.404;7.232;2022-11-15T08:52:43;11.70;99.90
2973;DHT22;1496;51.404;7.232;2022-11-15T08:55:28;11.80;99.90
2973;DHT22;1496;51.404;7.232;2022-11-15T08:58:12;11.80;99.90
2973;DHT22;1496;51.404;7.232;2022-11-15T09:00:56;11.90;99.90
2973;DHT22;1496;51.404;7.232;2022-11-15T09:03:40;11.80;99.90
2973;DHT22;1496;51.404;7.232;2022-11-15T09:06:25;11.80;99.90
2973;DHT22;1496;51.404;7.232;2022-11-15T09:09:09;11.80;99.90
2973;DHT22;1496;51.404;7.232;2022-11-15T09:11:57;11.80;99.90
2973;DHT22;1496;51.404;7.232;2022-11-15T09:14:41;11.80;99.90
2973;DHT22;1496;51.404;7.232;2022-11-15T09:17:26;11.80;99.90
2973;DHT22;1496;51.404;7.232;2022-11-15T09:20:11;11.80;99.90
2973;DHT22;1496;51.404;7.232;2022-11-15T09:23:02;11.80;99.90
2973;DHT22;1496;51.404;7.232;2022-11-15T09:25:46;11.90;99.90
2973;DHT22;1496;51.404;7.232;2022-11-15T09:28:32;11.90;99.90
2973;DHT22;1496;51.404;7.232;2022-11-15T09:31:17;12.00;99.90
2973;DHT22;1496;51.404;7.232;2022-11-15T09:34:02;12.00;99.90
2973;DHT22;1496;51.404;7.232;2022-11-15T09:36:46;12.00;99.00
2973;DHT22;1496;51.404;7.232;2022-11-15T09:39:31;12.00;99.70
2973;DHT22;1496;51.404;7.232;2022-11-15T09:45:34;12.00;95.30
2973;DHT22;1496;51.404;7.232;2022-11-15T09:48:49;12.00;92.70
2973;DHT22;1496;51.404;7.232;2022-11-15T09:51:40;12.10;92.40
2973;DHT22;1496;51.404;7.232;2022-11-15T09:54:31;12.20;90.80
2973;DHT22;1496;51.404;7.232;2022-11-15T09:57:19;12.20;90.60
2973;DHT22;1496;51.404;7.232;2022-11-15T10:00:12;12.30;89.00
2973;DHT22;1496;51.404;7.232;2022-11-15T10:03:15;12.40;86.10
2973;DHT22;1496;51.404;7.232;2022-11-15T10:05:54;12.30;77.60
2973;DHT22;1496;51.404;7.232;2022-11-15T10:08:43;12.30;71.00
2973;DHT22;1496;51.404;7.232;2022-11-15T10:11:17;12.20;69.90
2973;DHT22;1496;51.404;7.232;2022-11-15T10:13:46;12.30;73.50
2973;DHT22;1496;51.404;7.232;2022-11-15T10:17:01;12.30;71.60
2973;DHT22;1496;51.404;7.232;2022-11-15T10:22:48;12.40;67.10
2973;DHT22;1496;51.404;7.232;2022-11-15T10:27:42;12.40;59.80
2973;DHT22;1496;51.404;7.232;2022-11-15T10:30:15;12.50;60.00
2973;DHT22;1496;51.404;7.232;2022-11-15T10:32:43;12.40;58.20
2973;DHT22;1496;51.404;7.232;2022-11-15T10:35:28;12.50;57.50
2973;DHT22;1496;51.404;7.232;2022-11-15T10:38:09;12.40;60.80
2973;DHT22;1496;51.404;7.232;2022-11-15T10:40:36;12.40;53.10
2973;DHT22;1496;51.404;7.232;2022-11-15T10:43:22;12.50;52.10
2973;DHT22;1496;51.404;7.232;2022-11-15T10:45:51;12.60;53.90
2973;DHT22;1496;51.404;7.232;2022-11-15T10:48:20;12.60;50.50
2973;DHT22;1496;51.404;7.232;2022-11-15T10:50:52;12.60;48.60
2973;DHT22;1496;51.404;7.232;2022-11-15T10:55:49;12.70;49.20
2973;DHT22;1496;51.404;7.232;2022-11-15T10:58:35;12.70;48.10
2973;DHT22;1496;51.404;7.232;2022-11-15T11:01:17;12.80;49.60
2973;DHT22;1496;51.404;7.232;2022-11-15T11:03:45;12.80;45.40
2973;DHT22;1496;51.404;7.232;2022-11-15T11:06:14;12.90;46.40
2973;DHT22;1496;51.404;7.232;2022-11-15T11:08:58;13.00;40.00
2973;DHT22;1496;51.404;7.232;2022-11-15T11:11:25;13.00;42.90
2973;DHT22;1496;51.404;7.232;2022-11-15T11:13:51;13.10;43.70
2973;DHT22;1496;51.404;7.232;2022-11-15T11:16:32;13.20;40.10
2973;DHT22;1496;51.404;7.232;2022-11-15T11:22:12;13.30;34.40
2973;DHT22;1496;51.404;7.232;2022-11-15T11:27:53;13.20;31.20
2973;DHT22;1496;51.404;7.232;2022-11-15T11:33:23;13.30;30.10
2973;DHT22;1496;51.404;7.232;2022-11-15T11:46:59;13.50;25.00
2973;DHT22;1496;51.404;7.232;2022-11-15T11:49:46;13.50;22.30
2973;DHT22;1496;51.404;7.232;2022-11-15T11:52:38;13.70;23.90
2973;DHT22;1496;51.404;7.232;2022-11-15T11:57:44;13.60;19.40
2973;DHT22;1496;51.404;7.232;2022-11-15T12:00:18;13.50;15.60
2973;DHT22;1496;51.404;7.232;2022-11-15T12:03:11;13.40;14.90
2973;DHT22;1496;51.404;7.232;2022-11-15T12:05:48;13.40;12.90
2973;DHT22;1496;51.404;7.232;2022-11-15T12:08:40;13.30;12.10
2973;DHT22;1496;51.404;7.232;2022-11-15T12:11:28;13.40;10.10
2973;DHT22;1496;51.404;7.232;2022-11-15T12:14:00;13.40;9.80
2973;DHT22;1496;51.404;7.232;2022-11-15T12:16:31;13.50;7.60
2973;DHT22;1496;51.404;7.232;2022-11-15T12:19:02;13.50;8.20
2973;DHT22;1496;51.404;7.232;2022-11-15T12:22:10;13.50;8.60
2973;DHT22;1496;51.404;7.232;2022-11-15T12:24:43;13.40;6.30
2973;DHT22;1496;51.404;7.232;2022-11-15T12:27:33;13.30;8.10
2973;DHT22;1496;51.404;7.232;2022-11-15T12:30:09;13.30;7.60
2973;DHT22;1496;51.404;7.232;2022-11-15T12:32:38;13.30;6.20
2973;DHT22;1496;51.404;7.232;2022-11-15T12:35:20;13.40;6.60
2973;DHT22;1496;51.404;7.232;2022-11-15T12:37:54;13.40;6.30
2973;DHT22;1496;51.404;7.232;2022-11-15T12:43:03;13.50;7.50
2973;DHT22;1496;51.404;7.232;2022-11-15T12:45:36;13.50;5.10
2973;DHT22;1496;51.404;7.232;2022-11-15T12:51:04;13.50;3.10
2973;DHT22;1496;51.404;7.232;2022-11-15T12:53:31;13.50;2.70
2973;DHT22;1496;51.404;7.232;2022-11-15T12:58:46;13.50;1.90
2973;DHT22;1496;51.404;7.232;2022-11-15T13:04:22;13.50;1.00
2973;DHT22;1496;51.404;7.232;2022-11-15T13:12:04;13.50;1.00
2973;DHT22;1496;51.404;7.232;2022-11-15T13:17:09;13.60;1.00
2973;DHT22;1496;51.404;7.232;2022-11-15T13:19:38;13.50;1.00
2973;DHT22;1496;51.404;7.232;2022-11-15T13:22:22;13.50;1.00
2973;DHT22;1496;51.404;7.232;2022-11-15T13:25:16;13.50;1.00
2973;DHT22;1496;51.404;7.232;2022-11-15T13:27:48;13.50;1.00
2973;DHT22;1496;51.404;7.232;2022-11-15T13:30:20;13.50;1.00
2973;DHT22;1496;51.404;7.232;2022-11-15T13:32:48;13.40;1.00
2973;DHT22;1496;51.404;7.232;2022-11-15T13:35:36;13.40;1.00
2973;DHT22;1496;51.404;7.232;2022-11-15T13:38:04;13.40;1.00
2973;DHT22;1496;51.404;7.232;2022-11-15T13:40:36;13.40;1.00
2973;DHT22;1496;51.404;7.232;2022-11-15T13:46:19;13.30;1.00
2973;DHT22;1496;51.404;7.232;2022-11-15T13:48:52;13.20;1.00
2973;DHT22;1496;51.404;7.232;2022-11-15T13:51:24;13.20;1.00
2973;DHT22;1496;51.404;7.232;2022-11-15T13:53:56;13.10;1.00
2973;DHT22;1496;51.404;7.232;2022-11-15T13:56:23;13.10;1.00
2973;DHT22;1496;51.404;7.232;2022-11-15T13:58:51;13.10;1.20
2973;DHT22;1496;51.404;7.232;2022-11-15T14:01:20;13.00;1.00
2973;DHT22;1496;51.404;7.232;2022-11-15T14:03:53;13.00;3.20
2973;DHT22;1496;51.404;7.232;2022-11-15T14:06:22;12.90;3.50
2973;DHT22;1496;51.404;7.232;2022-11-15T14:09:02;12.90;3.20
2973;DHT22;1496;51.404;7.232;2022-11-15T14:11:28;12.90;3.80
2973;DHT22;1496;51.404;7.232;2022-11-15T14:14:14;12.90;3.80
2973;DHT22;1496;51.404;7.232;2022-11-15T14:16:44;12.90;5.00
2973;DHT22;1496;51.404;7.232;2022-11-15T14:19:32;12.90;4.60
2973;DHT22;1496;51.404;7.232;2022-11-15T14:22:21;12.90;4.90
2973;DHT22;1496;51.404;7.232;2022-11-15T14:25:06;12.90;5.10
2973;DHT22;1496;51.404;7.232;2022-11-15T14:27:32;12.90;6.00
2973;DHT22;1496;51.404;7.232;2022-11-15T14:29:59;13.00;6.20
2973;DHT22;1496;51.404;7.232;2022-11-15T14:32:28;13.00;6.80
2973;DHT22;1496;51.404;7.232;2022-11-15T14:34:56;12.90;6.60
2973;DHT22;1496;51.404;7.232;2022-11-15T14:39:54;12.90;7.70
2973;DHT22;1496;51.404;7.232;2022-11-15T14:42:21;12.90;7.40
2973;DHT22;1496;51.404;7.232;2022-11-15T14:44:48;12.90;7.70
2973;DHT22;1496;51.404;7.232;2022-11-15T14:47:14;13.00;7.60
2973;DHT22;1496;51.404;7.232;2022-11-15T14:49:40;13.00;7.50
2973;DHT22;1496;51.404;7.232;2022-11-15T14:52:28;13.00;8.00
2973;DHT22;1496;51.404;7.232;2022-11-15T14:54:55;13.00;8.10
2973;DHT22;1496;51.404;7.232;2022-11-15T14:57:25;13.00;9.90
2973;DHT22;1496;51.404;7.232;2022-11-15T14:59:52;13.00;8.70
2973;DHT22;1496;51.404;7.232;2022-11-15T15:02:25;13.00;9.10
2973;DHT22;1496;51.404;7.232;2022-11-15T15:04:53;12.90;9.20
2973;DHT22;1496;51.404;7.232;2022-11-15T15:07:19;13.00;10.70
2973;DHT22;1496;51.404;7.232;2022-11-15T15:09:46;12.90;9.50
2973;DHT22;1496;51.404;7.232;2022-11-15T15:12:20;12.90;9.90
2973;DHT22;1496;51.404;7.232;2022-11-15T15:18:52;12.90;10.50
2973;DHT22;1496;51.404;7.232;2022-11-15T15:21:25;12.80;14.00
2973;DHT22;1496;51.404;7.232;2022-11-15T15:23:52;12.70;12.80
2973;DHT22;1496;51.404;7.232;2022-11-15T15:26:24;12.70;12.70
2973;DHT22;1496;51.404;7.232;2022-11-15T15:28:58;12.70;12.10
2973;DHT22;1496;51.404;7.232;2022-11-15T15:31:51;12.70;12.50
2973;DHT22;1496;51.404;7.232;2022-11-15T15:34:17;12.80;12.10
2973;DHT22;1496;51.404;7.232;2022-11-15T15:36:44;12.80;12.20
2973;DHT22;1496;51.404;7.232;2022-11-15T15:39:10;12.80;12.90
2973;DHT22;1496;51.404;7.232;2022-11-15T15:41:37;12.80;13.20
2973;DHT22;1496;51.404;7.232;2022-11-15T15:44:02;12.80;12.70
2973;DHT22;1496;51.404;7.232;2022-11-15T15:46:28;12.80;13.20
2973;DHT22;1496;51.404;7.232;2022-11-15T15:48:54;12.80;13.30
2973;DHT22;1496;51.404;7.232;2022-11-15T15:51:19;12.90;13.30
2973;DHT22;1496;51.404;7.232;2022-11-15T15:53:46;12.80;13.80
2973;DHT22;1496;51.404;7.232;2022-11-15T15:56:13;12.80;14.60
2973;DHT22;1496;51.404;7.232;2022-11-15T15:58:39;12.80;14.80
2973;DHT22;1496;51.404;7.232;2022-11-15T16:01:05;12.80;15.00
2973;DHT22;1496;51.404;7.232;2022-11-15T16:03:31;12.80;15.90
2973;DHT22;1496;51.404;7.232;2022-11-15T16:05:56;12.80;15.80
2973;DHT22;1496;51.404;7.232;2022-11-15T16:08:24;12.80;16.30
2973;DHT22;1496;51.404;7.232;2022-11-15T16:10:52;12.80;17.20
2973;DHT22;1496;51.404;7.232;2022-11-15T16:13:17;12.80;17.10
2973;DHT22;1496;51.404;7.232;2022-11-15T16:15:44;12.90;17.60
2973;DHT22;1496;51.404;7.232;2022-11-15T16:18:20;12.90;17.60
2973;DHT22;1496;51.404;7.232;2022-11-15T16:20:59;12.90;17.80
2973;DHT22;1496;51.404;7.232;2022-11-15T16:23:29;12.90;18.90
2973;DHT22;1496;51.404;7.232;2022-11-15T16:25:55;12.90;18.40
2973;DHT22;1496;51.404;7.232;2022-11-15T16:28:26;12.90;18.60
2973;DHT22;1496;51.404;7.232;2022-11-15T16:31:08;12.90;19.20
2973;DHT22;1496;51.404;7.232;2022-11-15T16:33:34;12.80;19.90
2973;DHT22;1496;51.404;7.232;2022-11-15T16:36:01;12.80;20.50
2973;DHT22;1496;51.404;7.232;2022-11-15T16:38:30;12.90;21.10
2973;DHT22;1496;51.404;7.232;2022-11-15T16:40:55;12.90;21.40
2973;DHT22;1496;51.404;7.232;2022-11-15T16:43:21;12.80;21.10
2973;DHT22;1496;51.404;7.232;2022-11-15T16:45:49;12.80;21.60
2973;DHT22;1496;51.404;7.232;2022-11-15T16:48:25;12.90;22.80
2973;DHT22;1496;51.404;7.232;2022-11-15T16:50:55;12.80;22.20
2973;DHT22;1496;51.404;7.232;2022-11-15T16:53:21;12.80;22.50
2973;DHT22;1496;51.404;7.232;2022-11-15T16:55:48;12.90;22.10
2973;DHT22;1496;51.404;7.232;2022-11-15T16:58:13;12.90;22.60
2973;DHT22;1496;51.404;7.232;2022-11-15T17:00:39;12.90;22.40
2973;DHT22;1496;51.404;7.232;2022-11-15T17:03:04;12.90;21.80
2973;DHT22;1496;51.404;7.232;2022-11-15T17:05:30;12.90;22.90
2973;DHT22;1496;51.404;7.232;2022-11-15T17:07:56;13.00;22.00
2973;DHT22;1496;51.404;7.232;2022-11-15T17:10:23;13.00;22.10
2973;DHT22;1496;51.404;7.232;2022-11-15T17:12:51;13.00;23.40
2973;DHT22;1496;51.404;7.232;2022-11-15T17:15:17;13.00;22.90
2973;DHT22;1496;51.404;7.232;2022-11-15T17:17:43;13.00;22.50
2973;DHT22;1496;51.404;7.232;2022-11-15T17:20:15;13.00;22.20
2973;DHT22;1496;51.404;7.232;2022-11-15T17:22:40;13.00;22.70
2973;DHT22;1496;51.404;7.232;2022-11-15T17:25:06;13.00;23.00
2973;DHT22;1496;51.404;7.232;2022-11-15T17:27:32;13.00;22.90
2973;DHT22;1496;51.404;7.232;2022-11-15T17:29:58;13.00;23.00
2973;DHT22;1496;51.404;7.232;2022-11-15T17:32:23;13.00;22.70
2973;DHT22;1496;51.404;7.232;2022-11-15T17:34:49;13.00;22.70
2973;DHT22;1496;51.404;7.232;2022-11-15T17:37:14;13.00;22.80
2973;DHT22;1496;51.404;7.232;2022-11-15T17:39:40;13.10;22.40
2973;DHT22;1496;51.404;7.232;2022-11-15T17:42:06;13.00;23.10
2973;DHT22;1496;51.404;7.232;2022-11-15T17:44:31;13.00;23.80
2973;DHT22;1496;51.404;7.232;2022-11-15T17:46:57;13.00;23.40
2973;DHT22;1496;51.404;7.232;2022-11-15T17:49:23;13.00;23.40
2973;DHT22;1496;51.404;7.232;2022-11-15T17:51:49;13.00;22.70
2973;DHT22;1496;51.404;7.232;2022-11-15T17:54:17;13.00;22.90
2973;DHT22;1496;51.404;7.232;2022-11-15T17:56:42;13.10;22.60
2973;DHT22;1496;51.404;7.232;2022-11-15T17:59:08;13.10;23.20
2973;DHT22;1496;51.404;7.232;2022-11-15T18:01:35;13.00;23.80
2973;DHT22;1496;51.404;7.232;2022-11-15T18:04:04;13.00;23.80
2973;DHT22;1496;51.404;7.232;2022-11-15T18:06:35;13.10;24.20
2973;DHT22;1496;51.404;7.232;2022-11-15T18:09:02;13.00;24.40
2973;DHT22;1496;51.404;7.232;2022-11-15T18:11:30;13.10;23.90
2973;DHT22;1496;51.404;7.232;2022-11-15T18:13:59;13.00;24.10
2973;DHT22;1496;51.404;7.232;2022-11-15T18:16:28;13.20;24.50
2973;DHT22;1496;51.404;7.232;2022-11-15T18:18:55;13.20;24.90
2973;DHT22;1496;51.404;7.232;2022-11-15T18:21:26;13.20;25.70
2973;DHT22;1496;51.404;7.232;2022-11-15T18:23:54;13.10;25.90
2973;DHT22;1496;51.404;7.232;2022-11-15T18:26:22;13.20;25.90
2973;DHT22;1496;51.404;7.232;2022-11-15T18:28:52;13.20;27.30
2973;DHT22;1496;51.404;7.232;2022-11-15T18:31:29;13.20;27.70
2973;DHT22;1496;51.404;7.232;2022-11-15T18:33:58;13.10;29.50
2973;DHT22;1496;51.404;7.232;2022-11-15T18:36:27;13.10;30.80
2973;DHT22;1496;51.404;7.232;2022-11-15T18:38:58;13.10;31.10
2973;DHT22;1496;51.404;7.232;2022-11-15T18:41:24;13.10;30.30
2973;DHT22;1496;51.404;7.232;2022-11-15T18:43:53;13.10;31.60